Augusta Township, Michigan
Current Conditions -  °F | °C
As of 8:53 PM on Friday 31 Oct 2014 (Local Time) from KARB Reporting Station
Light Snow Light Snow  
Wind Chill: 24°   Ceiling: 1400
Heat Index: 35°   Visibility: 6mi
Dew Point: 30°   Wind: 21mph
Humidity: 82%   Direction: 360°N
Pressure: 30.07"   Gusts: 29mph
Location:  42.0828°N, 83.683°W
Report Text: KARB 010053Z AUTO 36018G25KT 6SM -SN BKN014 OVC023 02/M01 A3007 RMK AO2 PK WND 36029/0031 SNE05B34 SLP187 P0000 T00171011
Loading
Personal Weather Stations






























Interactive Weather Map
Tropical Storm Tracking
New forecast layout! Learn more

10-Day Weather Forecast

Advertisements
Track Severe Weather on mobile